createdAt,value
2019-04-25T00:02:27.371Z,30.25
2019-04-25T00:05:08.643Z,31.73
2019-04-25T00:07:48.632Z,31.45
2019-04-25T00:10:24.446Z,32.53
2019-04-25T00:13:03.774Z,30.88
2019-04-25T00:15:35.358Z,30.65
2019-04-25T00:18:12.716Z,32.50
2019-04-25T00:20:57.494Z,31.77
2019-04-25T00:23:31.767Z,33.25
2019-04-25T00:26:22.233Z,33.20
2019-04-25T00:28:56.280Z,33.40
2019-04-25T00:31:28.912Z,34.35
2019-04-25T00:34:02.182Z,31.40
2019-04-25T00:36:34.074Z,30.62
2019-04-25T00:39:07.295Z,30.35
2019-04-25T00:41:39.342Z,28.50
2019-04-25T00:44:12.106Z,28.20
2019-04-25T00:46:47.808Z,28.47
2019-04-25T00:49:16.919Z,26.83
2019-04-25T00:51:50.730Z,27.37
2019-04-25T00:54:23.451Z,27.17
2019-04-25T00:56:55.265Z,28.05
2019-04-25T00:59:37.317Z,32.45
2019-04-25T01:02:11.468Z,31.48
2019-04-25T01:07:16.374Z,29.32
2019-04-25T01:09:49.973Z,30.43
2019-04-25T01:12:22.309Z,30.50
2019-04-25T01:14:54.738Z,29.35
2019-04-25T01:17:26.487Z,31.17
2019-04-25T01:19:58.152Z,31.55
2019-04-25T01:22:29.801Z,31.82
2019-04-25T01:25:01.451Z,33.67
2019-04-25T01:27:33.335Z,30.68
2019-04-25T01:30:07.157Z,32.30
2019-04-25T01:32:39.196Z,33.18
2019-04-25T01:35:14.004Z,33.55
2019-04-25T01:37:47.491Z,34.45
2019-04-25T01:40:37.327Z,33.70
2019-04-25T01:43:26.922Z,33.38
2019-04-25T01:45:58.562Z,33.70
2019-04-25T01:48:30.080Z,31.27
2019-04-25T01:51:01.602Z,28.50
2019-04-25T01:53:33.949Z,28.30
2019-04-25T01:56:07.843Z,27.27
2019-04-25T01:58:40.983Z,22.70
2019-04-25T02:01:14.330Z,26.55
2019-04-25T02:03:46.231Z,26.50
2019-04-25T02:06:18.548Z,26.10
2019-04-25T02:08:50.879Z,24.80
2019-04-25T02:11:34.771Z,23.95
2019-04-25T02:14:07.149Z,22.93
2019-04-25T02:16:38.694Z,23.98
2019-04-25T02:19:31.387Z,22.15
2019-04-25T02:22:04.034Z,21.30
2019-04-25T02:24:35.560Z,21.48
2019-04-25T02:27:07.480Z,20.65
2019-04-25T02:29:39.194Z,22.05
2019-04-25T02:32:11.268Z,20.52
2019-04-25T02:34:45.263Z,19.77
2019-04-25T02:37:16.013Z,22.05
2019-04-25T02:39:47.633Z,26.35
2019-04-25T02:42:19.264Z,27.27
2019-04-25T02:44:54.731Z,33.08
2019-04-25T02:47:29.917Z,29.05
2019-04-25T02:50:07.093Z,27.67
2019-04-25T02:52:41.004Z,25.45
2019-04-25T02:55:28.029Z,25.62
2019-04-25T02:57:45.857Z,24.00
2019-04-25T03:00:24.859Z,27.98
2019-04-25T03:02:57.933Z,33.38
2019-04-25T03:05:30.143Z,31.10
2019-04-25T03:08:05.384Z,27.52
2019-04-25T03:10:35.439Z,24.43
2019-04-25T03:13:11.454Z,23.73
2019-04-25T03:18:15.187Z,20.48
2019-04-25T03:20:51.100Z,20.25
2019-04-25T03:23:30.585Z,19.98
2019-04-25T03:26:04.771Z,21.85
2019-04-25T03:28:36.924Z,20.68
2019-04-25T03:31:14.042Z,19.25
2019-04-25T03:33:45.052Z,19.17
2019-04-25T03:38:48.248Z,24.95
2019-04-25T03:41:20.710Z,25.37
2019-04-25T03:43:52.231Z,23.70
2019-04-25T03:46:24.048Z,22.22
2019-04-25T03:48:55.852Z,19.70
2019-04-25T03:51:27.370Z,19.48
2019-04-25T03:53:59.128Z,18.50
2019-04-25T03:56:31.086Z,18.25
2019-04-25T03:59:05.815Z,17.35
2019-04-25T04:01:37.330Z,17.80
2019-04-25T04:04:09.069Z,17.05
2019-04-25T04:06:46.270Z,17.07
2019-04-25T04:09:18.529Z,16.95
2019-04-25T04:11:50.825Z,17.00
2019-04-25T04:14:24.436Z,16.70
2019-04-25T04:17:10.914Z,17.70
2019-04-25T04:19:56.651Z,16.35
2019-04-25T04:22:39.534Z,16.52
2019-04-25T04:25:13.884Z,16.17
2019-04-25T04:27:46.319Z,16.50
2019-04-25T04:30:18.630Z,16.73
2019-04-25T04:32:53.585Z,17.07
2019-04-25T04:35:35.256Z,16.53
2019-04-25T04:38:08.140Z,16.20
2019-04-25T04:40:40.590Z,15.98
2019-04-25T04:43:12.230Z,15.93
2019-04-25T04:45:45.640Z,16.93
2019-04-25T04:48:17.497Z,16.75
2019-04-25T04:50:48.895Z,17.48
2019-04-25T04:53:20.594Z,15.90
2019-04-25T04:55:54.371Z,16.95
2019-04-25T04:58:26.685Z,17.40
2019-04-25T05:00:58.319Z,17.62
2019-04-25T05:03:43.995Z,17.25
2019-04-25T05:06:17.430Z,17.02
2019-04-25T05:08:53.231Z,17.37
2019-04-25T05:11:25.530Z,18.32
2019-04-25T05:13:57.165Z,17.77
2019-04-25T05:16:30.442Z,18.23
2019-04-25T05:19:03.723Z,18.62
2019-04-25T05:21:39.607Z,18.60
2019-04-25T05:24:16.415Z,18.23
2019-04-25T05:26:50.651Z,18.45
2019-04-25T05:29:24.144Z,19.50
2019-04-25T05:31:59.066Z,18.87
2019-04-25T05:34:30.828Z,18.12
2019-04-25T05:37:05.031Z,19.10
2019-04-25T05:39:39.292Z,19.40
2019-04-25T05:42:20.329Z,18.80
2019-04-25T05:44:51.941Z,20.37
2019-04-25T05:47:26.054Z,20.25
2019-04-25T05:49:57.592Z,19.98
2019-04-25T05:52:30.125Z,19.60
2019-04-25T05:55:01.718Z,19.85
2019-04-25T05:57:45.631Z,20.00
2019-04-25T06:00:10.742Z,19.50
2019-04-25T06:02:42.190Z,20.05
2019-04-25T06:08:07.204Z,20.00
2019-04-25T06:10:48.680Z,23.10
2019-04-25T06:13:30.667Z,21.50
2019-04-25T06:16:09.331Z,20.45
2019-04-25T06:18:44.061Z,20.50
2019-04-25T06:21:18.152Z,32.70
2019-04-25T06:23:57.711Z,22.70
2019-04-25T06:26:35.370Z,22.93
2019-04-25T06:29:03.313Z,23.47
2019-04-25T06:31:35.652Z,22.30
2019-04-25T06:34:10.746Z,21.60
2019-04-25T06:36:42.238Z,21.30
2019-04-25T06:39:14.251Z,20.10
2019-04-25T06:41:45.956Z,23.10
2019-04-25T06:44:34.417Z,22.13
2019-04-25T06:47:15.199Z,21.65
2019-04-25T06:49:46.628Z,20.90
2019-04-25T06:52:18.073Z,21.55
2019-04-25T06:54:49.617Z,21.73
2019-04-25T06:57:22.165Z,21.42
2019-04-25T06:59:53.745Z,22.67
2019-04-25T07:02:27.051Z,21.50
2019-04-25T07:04:58.597Z,21.62
2019-04-25T07:07:34.200Z,22.20
2019-04-25T07:10:09.181Z,29.30
2019-04-25T07:12:41.529Z,21.62
2019-04-25T07:15:14.742Z,21.25
2019-04-25T07:17:46.700Z,23.67
2019-04-25T07:20:21.578Z,22.80
2019-04-25T07:22:53.718Z,22.95
2019-04-25T07:25:27.742Z,23.75
2019-04-25T07:28:22.212Z,56.50
2019-04-25T07:30:57.014Z,26.52
2019-04-25T07:33:37.341Z,25.12
2019-04-25T07:36:10.912Z,26.35
2019-04-25T07:38:47.377Z,24.55
2019-04-25T07:41:19.522Z,25.85
2019-04-25T07:43:53.299Z,25.45
2019-04-25T07:46:29.803Z,25.12
2019-04-25T07:49:03.483Z,25.17
2019-04-25T07:51:35.568Z,24.92
2019-04-25T07:54:07.788Z,26.73
2019-04-25T07:56:39.441Z,24.02
2019-04-25T07:59:11.003Z,25.02
2019-04-25T08:02:07.893Z,27.80
2019-04-25T08:04:41.702Z,26.27
2019-04-25T08:07:15.438Z,26.10
2019-04-25T08:09:47.069Z,25.68
2019-04-25T08:12:19.728Z,25.85
2019-04-25T08:15:00.532Z,25.08
2019-04-25T08:17:50.242Z,25.17
2019-04-25T08:20:24.214Z,25.17
2019-04-25T08:22:59.001Z,25.48
2019-04-25T08:25:33.485Z,25.02
2019-04-25T08:28:05.038Z,25.80
2019-04-25T08:30:37.035Z,24.35
2019-04-25T08:33:11.439Z,23.30
2019-04-25T08:36:02.969Z,24.63
2019-04-25T08:38:17.002Z,24.52
2019-04-25T08:40:48.976Z,23.52
2019-04-25T08:43:20.621Z,24.00
2019-04-25T08:45:55.828Z,23.20
2019-04-25T08:48:30.483Z,23.87
2019-04-25T08:51:06.006Z,23.10
2019-04-25T08:53:54.506Z,24.20
2019-04-25T08:56:28.260Z,23.27
2019-04-25T08:59:08.225Z,23.27
2019-04-25T09:01:49.334Z,23.83
2019-04-25T09:04:42.628Z,22.73
2019-04-25T09:07:15.568Z,23.98
2019-04-25T09:09:49.726Z,22.60
2019-04-25T09:14:54.192Z,21.82
2019-04-25T09:17:29.071Z,22.27
2019-04-25T09:20:01.891Z,23.87
2019-04-25T09:22:39.939Z,22.82
2019-04-25T09:25:16.288Z,21.45
2019-04-25T09:27:51.164Z,21.20
2019-04-25T09:30:27.356Z,21.50
2019-04-25T09:33:10.961Z,21.20
2019-04-25T09:35:45.982Z,21.23
2019-04-25T09:38:20.541Z,19.95
2019-04-25T09:40:54.200Z,22.85
2019-04-25T09:43:26.001Z,21.20
2019-04-25T09:46:00.278Z,21.27
2019-04-25T09:48:46.826Z,21.20
2019-04-25T09:51:23.577Z,19.57
2019-04-25T09:53:57.224Z,19.92
2019-04-25T09:56:31.486Z,19.02
2019-04-25T09:59:07.493Z,20.50
2019-04-25T10:01:40.186Z,20.75
2019-04-25T10:04:12.137Z,18.30
2019-04-25T10:06:46.047Z,18.25
2019-04-25T10:09:18.077Z,18.12
2019-04-25T10:11:49.580Z,17.07
2019-04-25T10:14:37.655Z,17.12
2019-04-25T10:17:09.527Z,18.00
2019-04-25T10:19:41.203Z,16.82
2019-04-25T10:22:13.682Z,16.87
2019-04-25T10:24:59.925Z,16.87
2019-04-25T10:27:20.775Z,17.10
2019-04-25T10:29:56.532Z,17.37
2019-04-25T10:32:26.323Z,16.32
2019-04-25T10:37:30.807Z,16.10
2019-04-25T10:40:04.328Z,16.73
2019-04-25T10:42:36.957Z,17.30
2019-04-25T10:45:22.907Z,17.30
2019-04-25T10:47:46.801Z,17.20
2019-04-25T10:53:26.844Z,16.17
2019-04-25T10:56:00.101Z,19.92
2019-04-25T10:58:33.472Z,16.57
2019-04-25T11:01:06.442Z,16.97
2019-04-25T11:03:40.760Z,16.52
2019-04-25T11:06:15.043Z,17.87
2019-04-25T11:08:47.564Z,17.70
2019-04-25T11:11:21.651Z,17.30
2019-04-25T11:13:55.939Z,17.15
2019-04-25T11:16:28.310Z,16.15
2019-04-25T11:18:59.872Z,17.80
2019-04-25T11:21:33.214Z,17.75
2019-04-25T11:24:05.507Z,17.80
2019-04-25T11:26:38.909Z,17.62
2019-04-25T11:29:11.504Z,16.80
2019-04-25T11:31:45.940Z,17.07
2019-04-25T11:34:20.611Z,16.60
2019-04-25T11:36:55.680Z,17.40
2019-04-25T11:39:40.638Z,16.97
2019-04-25T11:42:13.110Z,17.00
2019-04-25T11:47:18.193Z,17.17
2019-04-25T11:49:54.196Z,18.52
2019-04-25T11:52:28.145Z,17.65
2019-04-25T11:54:59.341Z,16.85
2019-04-25T11:57:32.843Z,16.15
2019-04-25T12:00:21.599Z,16.70
2019-04-25T12:02:49.719Z,17.98
2019-04-25T12:05:23.581Z,17.50
2019-04-25T12:07:55.473Z,16.42
2019-04-25T12:10:28.487Z,16.67
2019-04-25T12:13:01.225Z,16.45
2019-04-25T12:15:33.824Z,15.63
2019-04-25T12:18:05.565Z,17.70
2019-04-25T12:20:37.247Z,17.00
2019-04-25T12:23:10.565Z,17.55
2019-04-25T12:25:42.302Z,16.30
2019-04-25T12:28:16.821Z,16.70
2019-04-25T12:30:54.950Z,17.77
2019-04-25T12:33:29.345Z,19.15
2019-04-25T12:36:06.232Z,16.62
2019-04-25T12:38:41.435Z,16.45
2019-04-25T12:41:13.511Z,16.93
2019-04-25T12:44:08.863Z,17.65
2019-04-25T12:46:43.611Z,16.75
2019-04-25T12:49:16.216Z,17.23
2019-04-25T12:51:50.375Z,16.17
2019-04-25T12:54:23.881Z,16.75
2019-04-25T12:56:57.262Z,16.60
2019-04-25T12:59:33.018Z,17.10
2019-04-25T13:02:17.169Z,17.45
2019-04-25T13:04:50.720Z,16.48
2019-04-25T13:07:30.335Z,18.17
2019-04-25T13:10:05.827Z,17.48
2019-04-25T13:12:40.071Z,17.42
2019-04-25T13:15:15.634Z,16.35
2019-04-25T13:17:48.586Z,17.15
2019-04-25T13:20:20.575Z,17.48
2019-04-25T13:22:53.854Z,16.50
2019-04-25T13:25:25.477Z,16.55
2019-04-25T13:28:07.144Z,17.65
2019-04-25T13:31:07.493Z,16.55
2019-04-25T13:33:39.814Z,17.27
2019-04-25T13:36:13.441Z,17.02
2019-04-25T13:38:45.268Z,17.20
2019-04-25T13:41:18.520Z,17.40
2019-04-25T13:43:50.327Z,18.52
2019-04-25T13:46:26.113Z,16.95
2019-04-25T13:48:59.331Z,19.12
2019-04-25T13:54:01.964Z,18.30
2019-04-25T13:56:40.403Z,17.95
2019-04-25T13:59:10.599Z,17.75
2019-04-25T14:01:51.135Z,17.32
2019-04-25T14:04:26.989Z,16.97
2019-04-25T14:06:59.619Z,17.17
2019-04-25T14:09:36.749Z,16.75
2019-04-25T14:12:27.599Z,17.25
2019-04-25T14:14:58.836Z,19.15
2019-04-25T14:17:41.346Z,20.57
2019-04-25T14:20:27.956Z,18.32
2019-04-25T14:23:00.008Z,17.45
2019-04-25T14:25:33.193Z,18.30
2019-04-25T14:28:06.920Z,23.73
2019-04-25T14:30:38.984Z,17.87
2019-04-25T14:33:13.444Z,17.87
2019-04-25T14:35:47.603Z,17.25
2019-04-25T14:38:26.593Z,17.70
2019-04-25T14:41:00.420Z,18.45
2019-04-25T14:43:32.030Z,17.02
2019-04-25T14:46:04.153Z,17.12
2019-04-25T14:48:37.122Z,17.77
2019-04-25T14:51:12.059Z,17.62
2019-04-25T14:53:43.793Z,17.80
2019-04-25T14:56:17.133Z,16.57
2019-04-25T14:58:49.125Z,17.35
2019-04-25T15:01:22.710Z,18.10
2019-04-25T15:03:55.939Z,18.32
2019-04-25T15:06:27.756Z,17.50
2019-04-25T15:09:00.068Z,18.52
2019-04-25T15:11:34.209Z,17.55
2019-04-25T15:14:07.066Z,18.60
2019-04-25T15:16:41.621Z,19.35
2019-04-25T15:19:15.204Z,20.50
2019-04-25T15:21:46.831Z,22.15
2019-04-25T15:24:18.573Z,20.55
2019-04-25T15:26:51.317Z,22.25
2019-04-25T15:31:56.941Z,25.35
2019-04-25T15:34:36.134Z,27.60
2019-04-25T15:37:13.067Z,24.95
2019-04-25T15:39:49.035Z,26.87
2019-04-25T15:42:31.953Z,27.42
2019-04-25T15:45:13.348Z,26.48
2019-04-25T15:47:45.666Z,27.02
2019-04-25T15:50:17.630Z,27.82
2019-04-25T15:52:53.790Z,26.87
2019-04-25T15:55:26.221Z,27.32
2019-04-25T15:58:00.530Z,26.87
2019-04-25T16:00:35.754Z,28.70
2019-04-25T16:03:08.496Z,28.15
2019-04-25T16:05:40.315Z,28.35
2019-04-25T16:08:13.939Z,28.45
2019-04-25T16:10:46.087Z,33.33
2019-04-25T16:13:20.825Z,32.48
2019-04-25T16:15:53.149Z,40.50
2019-04-25T16:18:24.702Z,32.08
2019-04-25T16:20:56.305Z,32.03
2019-04-25T16:23:30.194Z,30.23
2019-04-25T16:26:03.699Z,31.02
2019-04-25T16:28:36.055Z,31.40
2019-04-25T16:31:09.480Z,30.70
2019-04-25T16:33:42.139Z,31.30
2019-04-25T16:36:15.425Z,32.88
2019-04-25T16:38:47.212Z,31.60
2019-04-25T16:41:22.482Z,31.77
2019-04-25T16:43:55.724Z,34.65
2019-04-25T16:46:36.212Z,32.98
2019-04-25T16:49:08.657Z,33.88
2019-04-25T16:51:46.386Z,33.10
2019-04-25T16:54:18.082Z,35.40
2019-04-25T16:56:50.694Z,35.73
2019-04-25T16:59:22.578Z,38.00
2019-04-25T17:01:56.210Z,37.78
2019-04-25T17:04:29.705Z,39.38
2019-04-25T17:07:02.472Z,38.58
2019-04-25T17:09:35.976Z,43.08
2019-04-25T17:12:14.764Z,39.45
2019-04-25T17:14:53.824Z,40.35
2019-04-25T17:17:45.480Z,42.73
2019-04-25T17:20:18.739Z,38.98
2019-04-25T17:22:50.633Z,39.20
2019-04-25T17:25:25.467Z,39.65
2019-04-25T17:27:57.010Z,37.03
2019-04-25T17:30:32.580Z,39.80
2019-04-25T17:33:11.970Z,43.90
2019-04-25T17:35:59.548Z,42.50
2019-04-25T17:38:53.257Z,48.65
2019-04-25T17:41:25.034Z,51.08
2019-04-25T17:43:56.912Z,47.70
2019-04-25T17:46:29.273Z,51.20
2019-04-25T17:49:03.141Z,48.55
2019-04-25T17:51:35.117Z,49.80
2019-04-25T17:54:07.043Z,49.75
2019-04-25T17:56:40.952Z,54.23
2019-04-25T17:59:12.477Z,53.02
2019-04-25T18:01:44.388Z,53.13
2019-04-25T18:04:19.297Z,48.75
2019-04-25T18:06:51.067Z,43.40
2019-04-25T18:09:23.920Z,47.20
2019-04-25T18:11:57.071Z,45.00
2019-04-25T18:14:35.175Z,43.02
2019-04-25T18:17:08.617Z,41.18
2019-04-25T18:19:51.166Z,37.95
2019-04-25T18:22:24.448Z,36.53
2019-04-25T18:25:13.168Z,36.43
2019-04-25T18:27:55.620Z,36.88
2019-04-25T18:30:27.446Z,38.10
2019-04-25T18:33:15.801Z,36.28
2019-04-25T18:35:49.315Z,34.90
2019-04-25T18:38:29.045Z,35.68
2019-04-25T18:41:06.834Z,33.75
2019-04-25T18:43:49.366Z,38.05
2019-04-25T18:46:22.679Z,36.40
2019-04-25T18:48:55.241Z,35.85
2019-04-25T18:51:29.445Z,36.33
2019-04-25T18:54:02.538Z,36.30
2019-04-25T18:56:43.198Z,33.65
2019-04-25T18:59:19.285Z,34.60
2019-04-25T19:01:56.496Z,34.70
2019-04-25T19:04:39.565Z,35.70
2019-04-25T19:07:22.163Z,34.55
2019-04-25T19:09:45.592Z,34.58
2019-04-25T19:12:17.264Z,37.05
2019-04-25T19:14:48.913Z,36.77
2019-04-25T19:17:20.728Z,35.85
2019-04-25T19:19:52.661Z,34.45
2019-04-25T19:22:26.204Z,34.10
2019-04-25T19:24:57.751Z,34.65
2019-04-25T19:27:29.991Z,36.80
2019-04-25T19:30:02.506Z,34.67
2019-04-25T19:32:35.598Z,33.93
2019-04-25T19:35:07.753Z,33.48
2019-04-25T19:37:39.532Z,32.20
2019-04-25T19:40:30.415Z,31.25
2019-04-25T19:43:10.828Z,28.35
2019-04-25T19:45:43.136Z,29.25
2019-04-25T19:48:16.370Z,30.30
2019-04-25T19:50:48.084Z,26.33
2019-04-25T19:53:32.732Z,26.90
2019-04-25T19:56:06.488Z,26.85
2019-04-25T19:58:47.425Z,27.58
2019-04-25T20:01:21.069Z,27.27
2019-04-25T20:04:12.886Z,26.65
2019-04-25T20:07:02.745Z,25.23
2019-04-25T20:09:42.345Z,25.55
2019-04-25T20:12:18.795Z,24.57
2019-04-25T20:14:54.094Z,25.72
2019-04-25T20:17:25.933Z,26.17
2019-04-25T20:19:57.843Z,26.23
2019-04-25T20:22:35.309Z,25.15
2019-04-25T20:25:10.496Z,24.98
2019-04-25T20:27:42.207Z,27.40
2019-04-25T20:32:47.858Z,28.80
2019-04-25T20:35:19.465Z,32.03
2019-04-25T20:37:51.233Z,32.63
2019-04-25T20:40:23.870Z,36.65
2019-04-25T20:42:56.554Z,34.95
2019-04-25T20:45:31.742Z,38.60
2019-04-25T20:48:03.303Z,38.98
2019-04-25T20:50:35.225Z,39.13
2019-04-25T20:53:07.374Z,37.88
2019-04-25T20:55:39.433Z,39.20
2019-04-25T20:58:11.448Z,39.55
2019-04-25T21:00:45.416Z,41.75
2019-04-25T21:03:16.882Z,41.45
2019-04-25T21:05:50.998Z,40.90
2019-04-25T21:08:24.605Z,42.62
2019-04-25T21:10:57.744Z,43.25
2019-04-25T21:13:31.167Z,44.35
2019-04-25T21:16:04.712Z,43.30
2019-04-25T21:18:38.041Z,45.15
2019-04-25T21:21:09.662Z,43.68
2019-04-25T21:23:42.009Z,45.03
2019-04-25T21:26:13.927Z,45.48
2019-04-25T21:28:46.480Z,45.40
2019-04-25T21:31:18.203Z,46.65
2019-04-25T21:33:50.758Z,49.88
2019-04-25T21:36:23.698Z,54.20
2019-04-25T21:38:55.716Z,54.70
2019-04-25T21:41:38.396Z,56.00
2019-04-25T21:44:10.452Z,56.33
2019-04-25T21:46:45.900Z,53.00
2019-04-25T21:49:17.972Z,54.40
2019-04-25T21:51:51.095Z,57.13
2019-04-25T21:54:22.836Z,60.23
2019-04-25T21:56:57.430Z,59.40
2019-04-25T21:59:29.302Z,63.00
2019-04-25T22:02:00.924Z,69.37
2019-04-25T22:04:40.352Z,71.75
2019-04-25T22:07:06.212Z,72.67
2019-04-25T22:09:38.111Z,69.97
2019-04-25T22:12:12.152Z,65.83
2019-04-25T22:14:43.982Z,62.98
2019-04-25T22:17:15.708Z,61.70
2019-04-25T22:19:48.729Z,54.63
2019-04-25T22:22:22.201Z,49.45
2019-04-25T22:24:54.186Z,48.10
2019-04-25T22:27:27.529Z,44.00
2019-04-25T22:29:59.942Z,39.15
2019-04-25T22:32:33.595Z,35.70
2019-04-25T22:35:08.231Z,32.00
2019-04-25T22:37:39.815Z,29.87
2019-04-25T22:40:11.794Z,29.98
2019-04-25T22:42:43.860Z,28.75
2019-04-25T22:45:15.617Z,26.52
2019-04-25T22:47:48.501Z,23.42
2019-04-25T22:50:20.592Z,24.18
2019-04-25T22:52:54.465Z,24.80
2019-04-25T22:55:34.161Z,25.32
2019-04-25T22:58:06.584Z,23.30
2019-04-25T23:00:39.143Z,23.47
2019-04-25T23:03:14.422Z,22.25
2019-04-25T23:05:53.630Z,22.95
2019-04-25T23:08:26.535Z,22.62
2019-04-25T23:10:59.124Z,23.02
2019-04-25T23:13:31.145Z,21.77
2019-04-25T23:16:05.050Z,22.58
2019-04-25T23:18:36.637Z,22.58
2019-04-25T23:21:08.552Z,22.13
2019-04-25T23:23:40.267Z,20.77
2019-04-25T23:26:19.155Z,20.57
2019-04-25T23:28:52.784Z,19.23
2019-04-25T23:31:25.849Z,18.50
2019-04-25T23:33:57.774Z,19.25
2019-04-25T23:36:29.299Z,16.82
2019-04-25T23:39:00.851Z,17.67
2019-04-25T23:41:35.212Z,17.73
2019-04-25T23:44:07.985Z,17.23
2019-04-25T23:46:39.813Z,17.25
2019-04-25T23:49:12.734Z,17.12
2019-04-25T23:51:44.845Z,17.15
2019-04-25T23:54:17.199Z,18.52
2019-04-25T23:56:48.552Z,16.90
2019-04-25T23:59:20.251Z,17.30
